Time;durP1;ratioP1;P1;durP2;ratioP2;P2;SDS_P1;SDS_P2;PMS_P1;PMS_P2;Temp;Humidity;BMP_temperature;BMP_pressure;BME280_temperature;BME280_humidity;BME280_pressure;Samples;Min_cycle;Max_cycle;Signal;HPM_P1;HPM_P2
2022/12/26 00:02:30;;;;;;;;;;;;;;;;;;5099984;28;19922;-77
2022/12/26 00:05:17;;;;;;;;;;;;;;;;;;5096384;28;19923;-77
2022/12/26 00:08:03;;;;;;;;;;;;;;;;;;5101105;28;19922;-79
2022/12/26 00:10:50;;;;;;;;;;;;;;;;;;5096232;28;19916;-79
2022/12/26 00:13:36;;;;;;;;;;;;;;;;;;5100339;28;19919;-77
2022/12/26 00:16:23;;;;;;;;;;;;;;;;;;5102425;28;20302;-78
2022/12/26 00:19:09;;;;;;;;;;;;;;;;;;5102421;28;19915;-79
2022/12/26 00:21:56;;;;;;;;;;;;;;;;;;5101919;28;19926;-79
2022/12/26 00:24:42;;;;;;;;;;;;;;;;;;5087729;28;19915;-79
2022/12/26 00:27:29;;;;;;;;;;;;;;;;;;5094180;28;19912;-79
2022/12/26 00:30:15;;;;;;;;;;;;;;;;;;5099539;28;19916;-79
2022/12/26 00:33:02;;;;;;;;;;;;;;;;;;5099807;28;19924;-78
2022/12/26 00:35:48;;;;;;;;;;;;;;;;;;5102357;28;19916;-79
2022/12/26 00:38:35;;;;;;;;;;;;;;;;;;5100864;28;19934;-78
2022/12/26 00:41:21;;;;;;;;;;;;;;;;;;5101097;28;19912;-78
2022/12/26 00:44:08;;;;;;;;;;;;;;;;;;5098564;28;19934;-80
2022/12/26 00:46:54;;;;;;;;;;;;;;;;;;5100008;28;19912;-79
2022/12/26 00:49:41;;;;;;;;;;;;;;;;;;5097105;28;19922;-79
2022/12/26 00:52:27;;;;;;;;;;;;;;;;;;5101988;28;19931;-80
2022/12/26 00:55:14;;;;;;;;;;;;;;;;;;5100591;28;20378;-79
2022/12/26 00:58:00;;;;;;;;;;;;;;;;;;5101185;28;19919;-79
2022/12/26 01:00:47;;;;;;;;;;;;;;;;;;5101158;28;20366;-79
2022/12/26 01:03:33;;;;;;;;;;;;;;;;;;5100661;28;19922;-79
2022/12/26 01:06:19;;;;;;;;;;;;;;;;;;5102167;28;19919;-80
2022/12/26 01:09:06;;;;;;;;;;;;;;;;;;5103052;28;20534;-80
2022/12/26 01:11:52;;;;;;;;;;;;;;;;;;5098473;28;19968;-78
2022/12/26 01:14:39;;;;;;;;;;;;;;;;;;5098458;28;19919;-80
2022/12/26 01:17:26;;;;;;;;;;;;;;;;;;5105662;28;19912;-79
2022/12/26 01:20:12;;;;;;;;;;;;;;;;;;5104747;27;20653;-77
2022/12/26 01:22:59;;;;;;;;;;;;;;;;;;5102568;28;19924;-78
2022/12/26 01:25:45;;;;;;;;;;;;;;;;;;5099412;28;19926;-78
2022/12/26 01:28:32;;;;;;;;;;;;;;;;;;5105574;28;19918;-78
2022/12/26 01:31:18;;;;;;;;;;;;;;;;;;5103399;28;19919;-78
2022/12/26 01:34:05;;;;;;;;;;;;;;;;;;5102695;28;19926;-78
2022/12/26 01:36:51;;;;;;;;;;;;;;;;;;5102898;28;20311;-78
2022/12/26 01:39:38;;;;;;;;;;;;;;;;;;5101360;28;19920;-78
2022/12/26 01:42:24;;;;;;;;;;;;;;;;;;5095637;28;20371;-79
2022/12/26 01:45:11;;;;;;;;;;;;;;;;;;5103150;28;19916;-80
2022/12/26 01:47:57;;;;;;;;;;;;;;;;;;5104080;28;20352;-79
2022/12/26 01:50:43;;;;;;;;;;;;;;;;;;5101708;28;19923;-80
2022/12/26 01:53:30;;;;;;;;;;;;;;;;;;5093700;28;19926;-78
2022/12/26 01:56:16;;;;;;;;;;;;;;;;;;5103418;28;19919;-79
2022/12/26 01:59:03;;;;;;;;;;;;;;;;;;5100740;28;19916;-78
2022/12/26 02:01:49;;;;;;;;;;;;;;;;;;5098256;28;20368;-78
2022/12/26 02:07:43;;;;;;;;;;;;;;;;;;5072416;28;19931;-80
2022/12/26 02:10:29;;;;;;;;;;;;;;;;;;5101355;28;19920;-79
2022/12/26 02:13:16;;;;;;;;;;;;;;;;;;5096746;28;19919;-80
2022/12/26 02:16:02;;;;;;;;;;;;;;;;;;5101939;28;19967;-78
2022/12/26 02:18:49;;;;;;;;;;;;;;;;;;5095480;28;19919;-81
2022/12/26 02:21:35;;;;;;;;;;;;;;;;;;5093952;28;19919;-78
2022/12/26 02:24:22;;;;;;;;;;;;;;;;;;5100243;28;20272;-80
2022/12/26 02:27:08;;;;;;;;;;;;;;;;;;5099409;27;19912;-79
2022/12/26 02:29:55;;;;;;;;;;;;;;;;;;5102748;28;20625;-78
2022/12/26 02:32:41;;;;;;;;;;;;;;;;;;5100151;28;19923;-79
2022/12/26 02:35:28;;;;;;;;;;;;;;;;;;5100852;28;19916;-79
2022/12/26 02:38:14;;;;;;;;;;;;;;;;;;5094686;28;19912;-79
2022/12/26 02:41:01;;;;;;;;;;;;;;;;;;5100551;28;19916;-78
2022/12/26 02:43:47;;;;;;;;;;;;;;;;;;5086081;28;19930;-78
2022/12/26 03:13:09;;;;;;;;;;;;;;;;;;5102712;28;20363;-78
2022/12/26 03:14:22;;;;;;;;;;;;;;;;;;5096795;28;19931;-81
2022/12/26 03:17:18;;;;;;;;;;;;;;;;;;5103314;28;19912;-79
2022/12/26 03:20:05;;;;;;;;;;;;;;;;;;5100400;28;19912;-81
2022/12/26 03:22:51;;;;;;;;;;;;;;;;;;5101830;28;19924;-81
2022/12/26 03:28:44;;;;;;;;;;;;;;;;;;5105021;28;19915;-82
2022/12/26 03:31:30;;;;;;;;;;;;;;;;;;5101407;28;19919;-81
2022/12/26 03:34:17;;;;;;;;;;;;;;;;;;5102551;28;19919;-82
2022/12/26 03:37:03;;;;;;;;;;;;;;;;;;5098018;28;19923;-81
2022/12/26 04:19:59;;;;;;;;;;;;;;;;;;5094009;28;19923;-79
2022/12/26 04:44:25;;;;;;;;;;;;;;;;;;5105497;28;19929;-78
2022/12/26 04:47:11;;;;;;;;;;;;;;;;;;5105313;28;19919;-79
2022/12/26 04:50:11;;;;;;;;;;;;;;;;;;5102944;28;19922;-79
2022/12/26 04:53:00;;;;;;;;;;;;;;;;;;5104999;28;19920;-80
2022/12/26 04:55:47;;;;;;;;;;;;;;;;;;5104680;27;19912;-79
2022/12/26 04:58:33;;;;;;;;;;;;;;;;;;5101640;28;19912;-80
2022/12/26 05:10:42;;;;;;;;;;;;;;;;;;5100775;28;19916;-80
2022/12/26 05:13:31;;;;;;;;;;;;;;;;;;5095477;28;19927;-78
2022/12/26 05:28:41;;;;;;;;;;;;;;;;;;5101549;28;19923;-78
2022/12/26 05:31:27;;;;;;;;;;;;;;;;;;5103278;28;19931;-78
2022/12/26 05:34:19;;;;;;;;;;;;;;;;;;5102920;28;20394;-79
2022/12/26 05:37:06;;;;;;;;;;;;;;;;;;5093334;28;20295;-79
2022/12/26 05:39:52;;;;;;;;;;;;;;;;;;5106248;28;19925;-78
2022/12/26 05:42:39;;;;;;;;;;;;;;;;;;5100405;28;19915;-79
2022/12/26 05:45:25;;;;;;;;;;;;;;;;;;5104081;28;19990;-79
2022/12/26 05:48:11;;;;;;;;;;;;;;;;;;5103825;28;19912;-79
2022/12/26 05:50:58;;;;;;;;;;;;;;;;;;5103660;27;19912;-79
2022/12/26 05:53:45;;;;;;;;;;;;;;;;;;5099537;28;19927;-76
2022/12/26 05:56:31;;;;;;;;;;;;;;;;;;5105921;27;20375;-80
2022/12/26 05:59:18;;;;;;;;;;;;;;;;;;5101962;28;19919;-79
2022/12/26 06:02:04;;;;;;;;;;;;;;;;;;5103497;28;19953;-78
2022/12/26 06:04:51;;;;;;;;;;;;;;;;;;5104005;28;19911;-77
2022/12/26 06:07:37;;;;;;;;;;;;;;;;;;5099796;28;19920;-78
2022/12/26 06:10:25;;;;;;;;;;;;;;;;;;5103352;28;19916;-77
2022/12/26 06:13:12;;;;;;;;;;;;;;;;;;5100650;28;19923;-77
2022/12/26 06:15:58;;;;;;;;;;;;;;;;;;5105301;27;19927;-77
2022/12/26 06:18:45;;;;;;;;;;;;;;;;;;5104240;28;19922;-78
2022/12/26 06:21:31;;;;;;;;;;;;;;;;;;5101136;28;19916;-78
2022/12/26 06:24:18;;;;;;;;;;;;;;;;;;5088568;28;19923;-78
2022/12/26 06:27:04;;;;;;;;;;;;;;;;;;5101319;28;19916;-76
2022/12/26 06:29:51;;;;;;;;;;;;;;;;;;5100941;28;19911;-78
2022/12/26 06:32:37;;;;;;;;;;;;;;;;;;5099772;28;19930;-78
2022/12/26 06:35:24;;;;;;;;;;;;;;;;;;5096017;28;19941;-78
2022/12/26 06:38:10;;;;;;;;;;;;;;;;;;5103068;28;19912;-78
2022/12/26 06:40:57;;;;;;;;;;;;;;;;;;5102815;27;19911;-78
2022/12/26 06:43:43;;;;;;;;;;;;;;;;;;5089389;28;19935;-78
2022/12/26 06:46:30;;;;;;;;;;;;;;;;;;5086440;28;19919;-79
2022/12/26 06:49:16;;;;;;;;;;;;;;;;;;5102272;28;19919;-78
2022/12/26 06:52:03;;;;;;;;;;;;;;;;;;5103358;28;20401;-78
2022/12/26 06:54:49;;;;;;;;;;;;;;;;;;5101053;28;19916;-77
2022/12/26 06:57:36;;;;;;;;;;;;;;;;;;5101753;28;19912;-77
2022/12/26 07:00:23;;;;;;;;;;;;;;;;;;5097895;28;20575;-78
2022/12/26 07:03:09;;;;;;;;;;;;;;;;;;5099099;28;19912;-78
2022/12/26 07:05:56;;;;;;;;;;;;;;;;;;5097717;28;19918;-79
2022/12/26 07:08:42;;;;;;;;;;;;;;;;;;5098374;28;19916;-78
2022/12/26 07:11:29;;;;;;;;;;;;;;;;;;5100457;28;19923;-77
2022/12/26 07:14:15;;;;;;;;;;;;;;;;;;5094914;28;19920;-78
2022/12/26 07:17:01;;;;;;;;;;;;;;;;;;5097349;28;20650;-77
2022/12/26 07:19:48;;;;;;;;;;;;;;;;;;5101259;28;19912;-79
2022/12/26 07:22:34;;;;;;;;;;;;;;;;;;5099230;28;19934;-79
2022/12/26 07:25:21;;;;;;;;;;;;;;;;;;5100866;28;20408;-79
2022/12/26 07:28:07;;;;;;;;;;;;;;;;;;5103392;28;19916;-80
2022/12/26 07:30:56;;;;;;;;;;;;;;;;;;5097782;28;19916;-79
2022/12/26 07:33:42;;;;;;;;;;;;;;;;;;5100454;28;19922;-79
2022/12/26 07:36:29;;;;;;;;;;;;;;;;;;5099391;28;19912;-77
2022/12/26 07:39:15;;;;;;;;;;;;;;;;;;5093714;28;19939;-79
2022/12/26 07:42:02;;;;;;;;;;;;;;;;;;5100839;28;20380;-78
2022/12/26 07:44:48;;;;;;;;;;;;;;;;;;5097963;28;19921;-79
2022/12/26 07:47:35;;;;;;;;;;;;;;;;;;5102118;28;20469;-78
2022/12/26 07:50:21;;;;;;;;;;;;;;;;;;5084564;28;19911;-78
2022/12/26 07:53:08;;;;;;;;;;;;;;;;;;5101271;28;19924;-79
2022/12/26 07:55:54;;;;;;;;;;;;;;;;;;5098384;27;19916;-78
2022/12/26 07:58:41;;;;;;;;;;;;;;;;;;5097356;28;19922;-79
2022/12/26 08:01:27;;;;;;;;;;;;;;;;;;5098185;28;19908;-80
2022/12/26 08:04:13;;;;;;;;;;;;;;;;;;5101387;28;19912;-78
2022/12/26 08:07:00;;;;;;;;;;;;;;;;;;5099953;28;20367;-80
2022/12/26 08:09:46;;;;;;;;;;;;;;;;;;5098597;28;20391;-79
2022/12/26 08:12:33;;;;;;;;;;;;;;;;;;5100277;28;19915;-78
2022/12/26 08:15:19;;;;;;;;;;;;;;;;;;5096312;28;19916;-80
2022/12/26 08:18:06;;;;;;;;;;;;;;;;;;5100591;28;20335;-78
2022/12/26 08:20:52;;;;;;;;;;;;;;;;;;5099601;28;19923;-81
2022/12/26 08:23:39;;;;;;;;;;;;;;;;;;5104940;28;19930;-79
2022/12/26 08:26:25;;;;;;;;;;;;;;;;;;5103888;28;19916;-79
2022/12/26 08:29:12;;;;;;;;;;;;;;;;;;5102398;28;20383;-78
2022/12/26 08:31:58;;;;;;;;;;;;;;;;;;5106413;27;19919;-79
2022/12/26 08:34:45;;;;;;;;;;;;;;;;;;5100960;28;19943;-78
2022/12/26 08:37:34;;;;;;;;;;;;;;;;;;5104849;28;19938;-79
2022/12/26 08:40:21;;;;;;;;;;;;;;;;;;5105236;28;20394;-77
2022/12/26 08:43:07;;;;;;;;;;;;;;;;;;5103731;28;19924;-79
2022/12/26 08:45:53;;;;;;;;;;;;;;;;;;5104037;28;19919;-78
2022/12/26 08:48:40;;;;;;;;;;;;;;;;;;5104033;28;20286;-79
2022/12/26 08:51:26;;;;;;;;;;;;;;;;;;5099272;28;20286;-78
2022/12/26 08:54:13;;;;;;;;;;;;;;;;;;5103206;28;19923;-79
2022/12/26 08:56:59;;;;;;;;;;;;;;;;;;5105696;27;20414;-79
2022/12/26 08:59:46;;;;;;;;;;;;;;;;;;5102751;28;19923;-79
2022/12/26 09:02:32;;;;;;;;;;;;;;;;;;5105337;27;20572;-78
2022/12/26 09:05:19;;;;;;;;;;;;;;;;;;5101950;28;19918;-80
2022/12/26 09:08:05;;;;;;;;;;;;;;;;;;5101612;28;19918;-77
2022/12/26 09:10:52;;;;;;;;;;;;;;;;;;5098166;28;19916;-78
2022/12/26 09:13:38;;;;;;;;;;;;;;;;;;5103448;28;19923;-85
2022/12/26 09:16:25;;;;;;;;;;;;;;;;;;5095107;27;19926;-85
2022/12/26 09:19:11;;;;;;;;;;;;;;;;;;5097352;28;19919;-80
2022/12/26 09:25:03;;;;;;;;;;;;;;;;;;5099817;28;19919;-80
2022/12/26 09:27:52;;;;;;;;;;;;;;;;;;5100786;28;19912;-80
2022/12/26 09:30:38;;;;;;;;;;;;;;;;;;5097200;28;20378;-81
2022/12/26 09:33:26;;;;;;;;;;;;;;;;;;5103334;28;19924;-80
2022/12/26 09:36:13;;;;;;;;;;;;;;;;;;5100276;28;19912;-81
2022/12/26 09:38:59;;;;;;;;;;;;;;;;;;5097787;28;19930;-82
2022/12/26 09:41:46;;;;;;;;;;;;;;;;;;5099613;28;19918;-82
2022/12/26 09:44:32;;;;;;;;;;;;;;;;;;5100174;28;19922;-86
2022/12/26 09:47:19;;;;;;;;;;;;;;;;;;5099086;27;19935;-83
2022/12/26 09:50:05;;;;;;;;;;;;;;;;;;5101118;27;20035;-83
2022/12/26 09:52:52;;;;;;;;;;;;;;;;;;5103029;27;19916;-87
2022/12/26 09:55:38;;;;;;;;;;;;;;;;;;5102709;27;20013;-92
2022/12/26 09:58:25;;;;;;;;;;;;;;;;;;5120400;27;19919;-88
2022/12/26 10:01:12;;;;;;;;;;;;;;;;;;5115071;28;19914;-92
2022/12/26 10:03:59;;;;;;;;;;;;;;;;;;5111913;27;19912;-88
2022/12/26 10:06:46;;;;;;;;;;;;;;;;;;5103879;28;20405;-91
2022/12/26 10:09:32;;;;;;;;;;;;;;;;;;5105933;28;19922;-86
2022/12/26 10:12:19;;;;;;;;;;;;;;;;;;5094038;28;19928;-88
2022/12/26 10:15:05;;;;;;;;;;;;;;;;;;5101209;28;19920;-84
2022/12/26 10:17:52;;;;;;;;;;;;;;;;;;5105263;28;20560;-87
2022/12/26 10:20:39;;;;;;;;;;;;;;;;;;5102970;27;19930;-83
2022/12/26 10:23:25;;;;;;;;;;;;;;;;;;5098363;28;19928;-80
2022/12/26 10:26:12;;;;;;;;;;;;;;;;;;5102084;27;19912;-84
2022/12/26 10:28:59;;;;;;;;;;;;;;;;;;5101067;27;19912;-78
2022/12/26 10:31:45;;;;;;;;;;;;;;;;;;5101817;27;19920;-85
2022/12/26 10:34:32;;;;;;;;;;;;;;;;;;5099896;28;19920;-81
2022/12/26 10:37:18;;;;;;;;;;;;;;;;;;5102324;28;19929;-81
2022/12/26 10:40:04;;;;;;;;;;;;;;;;;;5101660;27;19916;-84
2022/12/26 10:42:51;;;;;;;;;;;;;;;;;;5102170;27;19923;-82
2022/12/26 10:45:37;;;;;;;;;;;;;;;;;;5101616;28;19922;-85
2022/12/26 10:48:24;;;;;;;;;;;;;;;;;;5101099;28;19912;-81
2022/12/26 10:51:12;;;;;;;;;;;;;;;;;;5100648;28;19912;-78
2022/12/26 10:53:59;;;;;;;;;;;;;;;;;;5101967;27;20409;-78
2022/12/26 10:56:45;;;;;;;;;;;;;;;;;;5098719;28;19922;-82
2022/12/26 10:59:32;;;;;;;;;;;;;;;;;;5101751;28;19911;-81
2022/12/26 11:02:18;;;;;;;;;;;;;;;;;;5102149;28;19912;-80
2022/12/26 11:05:05;;;;;;;;;;;;;;;;;;5100853;28;19926;-78
2022/12/26 11:07:51;;;;;;;;;;;;;;;;;;5078436;28;19939;-79
2022/12/26 11:10:38;;;;;;;;;;;;;;;;;;5098370;28;20383;-80
2022/12/26 11:13:24;;;;;;;;;;;;;;;;;;5101435;27;19920;-79
2022/12/26 11:16:11;;;;;;;;;;;;;;;;;;5098401;28;19927;-80
2022/12/26 11:18:58;;;;;;;;;;;;;;;;;;5098903;27;19912;-81
2022/12/26 11:21:44;;;;;;;;;;;;;;;;;;5100019;27;19916;-77
2022/12/26 11:24:31;;;;;;;;;;;;;;;;;;5095703;28;20311;-80
2022/12/26 11:27:19;;;;;;;;;;;;;;;;;;5081452;28;20311;-79
2022/12/26 11:29:45;;;;;;;;;;;;;;;;;;5064015;28;19928;-78
2022/12/26 11:32:11;;;;;;;;;;;;;;;;;;5050747;28;19924;-73
2022/12/26 11:34:44;;;;;;;;;;;;;;;;;;5076773;28;19967;-74
2022/12/26 11:37:10;;;;;;;;;;;;;;;;;;5068776;28;19947;-76
2022/12/26 11:39:37;;;;;;;;;;;;;;;;;;5070620;28;19959;-77
2022/12/26 11:42:03;;;;;;;;;;;;;;;;;;5073497;28;19956;-74
2022/12/26 11:44:29;;;;;;;;;;;;;;;;;;5050973;28;19951;-72
2022/12/26 11:46:55;;;;;;;;;;;;;;;;;;5073854;28;20013;-73
2022/12/26 11:49:21;;;;;;;;;;;;;;;;;;5072568;28;19948;-72
2022/12/26 11:51:48;;;;;;;;;;;;;;;;;;5049775;28;19982;-75
2022/12/26 11:54:14;;;;;;;;;;;;;;;;;;5062111;28;20540;-75
2022/12/26 11:56:40;;;;;;;;;;;;;;;;;;5067504;28;20031;-74
2022/12/26 11:59:06;;;;;;;;;;;;;;;;;;5071836;28;19947;-75
2022/12/26 12:01:32;;;;;;;;;;;;;;;;;;5054250;28;19920;-75
2022/12/26 12:03:59;;;;;;;;;;;;;;;;;;5055123;28;19921;-74
2022/12/26 12:06:25;;;;;;;;;;;;;;;;;;5055813;28;19924;-74
2022/12/26 12:08:52;;;;;;;;;;;;;;;;;;5046572;28;20376;-73
2022/12/26 12:11:18;;;;;;;;;;;;;;;;;;5074036;28;19964;-73
2022/12/26 12:13:44;;;;;;;;;;;;;;;;;;5075264;28;20388;-74
2022/12/26 12:16:10;;;;;;;;;;;;;;;;;;5075875;28;19916;-74
2022/12/26 12:18:36;;;;;;;;;;;;;;;;;;5057353;28;19951;-73
2022/12/26 12:21:03;;;;;;;;;;;;;;;;;;5030156;28;19951;-73
2022/12/26 12:23:29;;;;;;;;;;;;;;;;;;5052533;28;19999;-74
2022/12/26 12:25:58;;;;;;;;;;;;;;;;;;5064093;28;19943;-74
2022/12/26 12:28:24;;;;;;;;;;;;;;;;;;5031107;28;19986;-77
2022/12/26 12:30:53;;;;;;;;;;;;;;;;;;5037028;28;20342;-75
2022/12/26 12:33:38;;;;;;;;;;;;;;;;;;5052027;28;20051;-75
2022/12/26 12:36:23;;;;;;;;;;;;;;;;;;5039735;28;20078;-75
2022/12/26 12:39:10;;;;;;;;;;;;;;;;;;5052260;28;19912;-75
2022/12/26 12:41:56;;;;;;;;;;;;;;;;;;5052130;28;19924;-76
2022/12/26 12:44:43;;;;;;;;;;;;;;;;;;5049458;28;19921;-75
2022/12/26 12:47:29;;;;;;;;;;;;;;;;;;5054202;28;19963;-77
2022/12/26 12:50:16;;;;;;;;;;;;;;;;;;5046273;28;20694;-74
2022/12/26 12:53:02;;;;;;;;;;;;;;;;;;5045576;28;19973;-74
2022/12/26 12:55:28;;;;;;;;;;;;;;;;;;5045261;28;19931;-75
2022/12/26 12:57:55;;;;;;;;;;;;;;;;;;5047708;28;21188;-74
2022/12/26 13:00:22;;;;;;;;;;;;;;;;;;5047900;28;21056;-75
2022/12/26 13:03:09;;;;;;;;;;;;;;;;;;5053974;28;20059;-74
2022/12/26 13:05:53;;;;;;;;;;;;;;;;;;5040828;28;19955;-74
2022/12/26 13:08:40;;;;;;;;;;;;;;;;;;5055427;28;19909;-75
2022/12/26 13:11:26;;;;;;;;;;;;;;;;;;5036394;28;19920;-76
2022/12/26 13:14:13;;;;;;;;;;;;;;;;;;5061315;28;19959;-75
2022/12/26 13:16:59;;;;;;;;;;;;;;;;;;5046451;28;19916;-74
2022/12/26 13:19:46;;;;;;;;;;;;;;;;;;5055274;28;19963;-76
2022/12/26 13:24:22;;;;;;;;;;;;;;;;;;5055956;28;20591;-75
2022/12/26 13:25:39;;;;;;;;;;;;;;;;;;5058345;28;19927;-75
2022/12/26 13:28:25;;;;;;;;;;;;;;;;;;5057972;28;19920;-76
2022/12/26 13:31:12;;;;;;;;;;;;;;;;;;5060775;28;19937;-76
2022/12/26 13:33:58;;;;;;;;;;;;;;;;;;5061039;28;19920;-74
2022/12/26 13:36:45;;;;;;;;;;;;;;;;;;5059235;28;19919;-76
2022/12/26 13:39:31;;;;;;;;;;;;;;;;;;5055641;28;19923;-76
2022/12/26 13:45:23;;;;;;;;;;;;;;;;;;5059793;28;19912;-77
2022/12/26 13:48:09;;;;;;;;;;;;;;;;;;5056643;28;20486;-74
2022/12/26 13:50:56;;;;;;;;;;;;;;;;;;5059895;28;19942;-77
2022/12/26 13:53:42;;;;;;;;;;;;;;;;;;5056277;28;19924;-73
2022/12/26 13:56:29;;;;;;;;;;;;;;;;;;5043537;28;19924;-75
2022/12/26 13:59:16;;;;;;;;;;;;;;;;;;5051264;28;19927;-75
2022/12/26 14:02:02;;;;;;;;;;;;;;;;;;5057907;28;20702;-77
2022/12/26 14:04:49;;;;;;;;;;;;;;;;;;5057948;28;19916;-76
2022/12/26 14:07:35;;;;;;;;;;;;;;;;;;5056381;28;19913;-77
2022/12/26 14:10:21;;;;;;;;;;;;;;;;;;5059091;28;20331;-78
2022/12/26 14:13:08;;;;;;;;;;;;;;;;;;5046569;28;20388;-76
2022/12/26 14:15:54;;;;;;;;;;;;;;;;;;5058220;28;19925;-77
2022/12/26 14:18:41;;;;;;;;;;;;;;;;;;5039468;28;19934;-77
2022/12/26 14:21:27;;;;;;;;;;;;;;;;;;5061704;28;19927;-76
2022/12/26 14:24:14;;;;;;;;;;;;;;;;;;5077434;28;20378;-77
2022/12/26 14:27:00;;;;;;;;;;;;;;;;;;5076383;28;19927;-75
2022/12/26 14:29:47;;;;;;;;;;;;;;;;;;5079147;28;19912;-76
2022/12/26 14:32:33;;;;;;;;;;;;;;;;;;5053407;28;20309;-75
2022/12/26 14:35:20;;;;;;;;;;;;;;;;;;5078313;28;20303;-75
2022/12/26 14:38:06;;;;;;;;;;;;;;;;;;5072019;28;19920;-74
2022/12/26 14:40:53;;;;;;;;;;;;;;;;;;5059485;28;19916;-75
2022/12/26 14:43:40;;;;;;;;;;;;;;;;;;5075979;28;19935;-74
2022/12/26 14:46:27;;;;;;;;;;;;;;;;;;5073134;28;19917;-77
2022/12/26 14:49:13;;;;;;;;;;;;;;;;;;5074585;28;19920;-76
2022/12/26 14:52:00;;;;;;;;;;;;;;;;;;5073025;28;19913;-75
2022/12/26 14:54:46;;;;;;;;;;;;;;;;;;5069404;28;19928;-76
2022/12/26 14:57:33;;;;;;;;;;;;;;;;;;5069401;28;19928;-76
2022/12/26 15:00:19;;;;;;;;;;;;;;;;;;5075727;28;20641;-77
2022/12/26 15:03:06;;;;;;;;;;;;;;;;;;5072211;28;19920;-75
2022/12/26 15:05:52;;;;;;;;;;;;;;;;;;5069699;28;19939;-77
2022/12/26 15:08:39;;;;;;;;;;;;;;;;;;5070430;28;19912;-78
2022/12/26 15:11:25;;;;;;;;;;;;;;;;;;5073591;28;19916;-76
2022/12/26 15:14:12;;;;;;;;;;;;;;;;;;5073198;28;19929;-78
2022/12/26 15:16:59;;;;;;;;;;;;;;;;;;5072351;28;19916;-76
2022/12/26 15:19:45;;;;;;;;;;;;;;;;;;5070909;28;19916;-76
2022/12/26 15:22:32;;;;;;;;;;;;;;;;;;5075983;28;19932;-76
2022/12/26 15:25:18;;;;;;;;;;;;;;;;;;5073518;28;19923;-77
2022/12/26 15:28:05;;;;;;;;;;;;;;;;;;5074048;28;19943;-75
2022/12/26 15:30:51;;;;;;;;;;;;;;;;;;5073851;28;19923;-75
2022/12/26 15:33:38;;;;;;;;;;;;;;;;;;5077001;28;19916;-75
2022/12/26 15:36:24;;;;;;;;;;;;;;;;;;5072936;28;19916;-76
2022/12/26 15:39:11;;;;;;;;;;;;;;;;;;5064481;28;19919;-76
2022/12/26 15:41:57;;;;;;;;;;;;;;;;;;5076760;28;19919;-77
2022/12/26 15:44:44;;;;;;;;;;;;;;;;;;5076212;28;19920;-75
2022/12/26 15:47:30;;;;;;;;;;;;;;;;;;5074529;28;19919;-74
2022/12/26 15:50:17;;;;;;;;;;;;;;;;;;5076641;28;20015;-75
2022/12/26 15:53:05;;;;;;;;;;;;;;;;;;5076678;28;20454;-76
2022/12/26 15:55:52;;;;;;;;;;;;;;;;;;5059570;28;19928;-75
2022/12/26 15:58:38;;;;;;;;;;;;;;;;;;5070451;28;20348;-78
2022/12/26 16:01:24;;;;;;;;;;;;;;;;;;5070066;28;19916;-76
2022/12/26 16:04:11;;;;;;;;;;;;;;;;;;5072493;28;19916;-76
2022/12/26 16:06:57;;;;;;;;;;;;;;;;;;5075058;28;19916;-80
2022/12/26 16:09:44;;;;;;;;;;;;;;;;;;5054572;28;19927;-81
2022/12/26 16:12:33;;;;;;;;;;;;;;;;;;5068947;28;19927;-79
2022/12/26 16:15:19;;;;;;;;;;;;;;;;;;5073217;28;20403;-80
2022/12/26 16:18:06;;;;;;;;;;;;;;;;;;5069699;28;19917;-81
2022/12/26 16:23:58;;;;;;;;;;;;;;;;;;5048896;28;20319;-78
2022/12/26 16:26:44;;;;;;;;;;;;;;;;;;5059727;28;19923;-77
2022/12/26 16:29:31;;;;;;;;;;;;;;;;;;5052305;28;20415;-78
2022/12/26 16:32:17;;;;;;;;;;;;;;;;;;5055207;28;19924;-82
2022/12/26 16:35:04;;;;;;;;;;;;;;;;;;5051133;28;20005;-81
2022/12/26 16:37:50;;;;;;;;;;;;;;;;;;5058219;28;19916;-81
2022/12/26 16:40:38;;;;;;;;;;;;;;;;;;5056310;28;19916;-82
2022/12/26 16:43:24;;;;;;;;;;;;;;;;;;5056545;28;19917;-80
2022/12/26 16:46:11;;;;;;;;;;;;;;;;;;5055484;28;19939;-80
2022/12/26 16:48:57;;;;;;;;;;;;;;;;;;5055380;28;19923;-80
2022/12/26 16:51:44;;;;;;;;;;;;;;;;;;5056984;28;19927;-78
2022/12/26 16:54:30;;;;;;;;;;;;;;;;;;5041087;28;19920;-75
2022/12/26 16:57:17;;;;;;;;;;;;;;;;;;5061291;28;19920;-77
2022/12/26 17:00:03;;;;;;;;;;;;;;;;;;5057090;28;19921;-78
2022/12/26 17:02:50;;;;;;;;;;;;;;;;;;5056023;28;19922;-74
2022/12/26 17:05:36;;;;;;;;;;;;;;;;;;5058860;28;19927;-75
2022/12/26 17:08:23;;;;;;;;;;;;;;;;;;5062553;28;19917;-78
2022/12/26 17:11:09;;;;;;;;;;;;;;;;;;5051162;28;19917;-76
2022/12/26 17:13:56;;;;;;;;;;;;;;;;;;5058096;28;20592;-79
2022/12/26 17:16:42;;;;;;;;;;;;;;;;;;5056994;28;19913;-77
2022/12/26 17:19:30;;;;;;;;;;;;;;;;;;5056942;28;19920;-75
2022/12/26 17:22:16;;;;;;;;;;;;;;;;;;5061900;28;19929;-75
2022/12/26 17:25:03;;;;;;;;;;;;;;;;;;5075765;28;19916;-75
2022/12/26 17:27:49;;;;;;;;;;;;;;;;;;5060542;28;20368;-76
2022/12/26 17:30:36;;;;;;;;;;;;;;;;;;5078415;28;19916;-76
2022/12/26 17:33:25;;;;;;;;;;;;;;;;;;5069580;28;19916;-76
2022/12/26 17:36:12;;;;;;;;;;;;;;;;;;5077741;28;19920;-77
2022/12/26 17:38:59;;;;;;;;;;;;;;;;;;5072097;28;19916;-77
2022/12/26 17:41:45;;;;;;;;;;;;;;;;;;5061575;28;19916;-76
2022/12/26 17:44:32;;;;;;;;;;;;;;;;;;5074728;28;20400;-75
2022/12/26 17:47:18;;;;;;;;;;;;;;;;;;5075470;28;19916;-76
2022/12/26 17:50:05;;;;;;;;;;;;;;;;;;5078393;28;20399;-76
2022/12/26 17:52:51;;;;;;;;;;;;;;;;;;5075075;28;19916;-81
2022/12/26 17:55:38;;;;;;;;;;;;;;;;;;5075966;28;19936;-77
2022/12/26 17:58:27;;;;;;;;;;;;;;;;;;5062527;28;19916;-76
2022/12/26 18:01:14;;;;;;;;;;;;;;;;;;5059148;28;20399;-75
2022/12/26 18:04:01;;;;;;;;;;;;;;;;;;5062998;28;19913;-77
2022/12/26 18:06:47;;;;;;;;;;;;;;;;;;5078664;28;19926;-76
2022/12/26 18:09:34;;;;;;;;;;;;;;;;;;5070816;28;20426;-76
2022/12/26 18:12:20;;;;;;;;;;;;;;;;;;5077190;28;19916;-76
2022/12/26 18:15:07;;;;;;;;;;;;;;;;;;5073235;28;19949;-77
2022/12/26 18:17:53;;;;;;;;;;;;;;;;;;5075132;28;19926;-78
2022/12/26 18:20:40;;;;;;;;;;;;;;;;;;5069090;28;19916;-77
2022/12/26 18:23:26;;;;;;;;;;;;;;;;;;5074650;28;19928;-78
2022/12/26 18:26:16;;;;;;;;;;;;;;;;;;5072932;28;20339;-79
2022/12/26 18:29:03;;;;;;;;;;;;;;;;;;5071508;28;19920;-79
2022/12/26 18:31:49;;;;;;;;;;;;;;;;;;5073747;28;19958;-79
2022/12/26 18:34:36;;;;;;;;;;;;;;;;;;5075977;28;20525;-77
2022/12/26 18:37:22;;;;;;;;;;;;;;;;;;5078062;28;19912;-79
2022/12/26 18:40:09;;;;;;;;;;;;;;;;;;5077882;28;20637;-79
2022/12/26 18:42:55;;;;;;;;;;;;;;;;;;5073828;28;20402;-79
2022/12/26 18:45:43;;;;;;;;;;;;;;;;;;5077249;28;19958;-80
2022/12/26 18:48:30;;;;;;;;;;;;;;;;;;5073318;28;19923;-81
2022/12/26 18:51:18;;;;;;;;;;;;;;;;;;5073069;28;19923;-78
2022/12/26 18:54:05;;;;;;;;;;;;;;;;;;5072687;28;19927;-77
2022/12/26 18:56:51;;;;;;;;;;;;;;;;;;5052139;28;19925;-78
2022/12/26 18:59:38;;;;;;;;;;;;;;;;;;5069912;28;20623;-77
2022/12/26 19:02:24;;;;;;;;;;;;;;;;;;5056532;28;19922;-75
2022/12/26 19:05:11;;;;;;;;;;;;;;;;;;5071922;28;19916;-76
2022/12/26 19:07:57;;;;;;;;;;;;;;;;;;5072724;28;19927;-76
2022/12/26 19:10:46;;;;;;;;;;;;;;;;;;5074799;28;19923;-77
2022/12/26 19:13:32;;;;;;;;;;;;;;;;;;5060886;28;19912;-77
2022/12/26 19:16:19;;;;;;;;;;;;;;;;;;5069370;28;20368;-77
2022/12/26 19:19:05;;;;;;;;;;;;;;;;;;5057268;28;19916;-75
2022/12/26 19:21:52;;;;;;;;;;;;;;;;;;5073050;28;19920;-77
2022/12/26 19:24:38;;;;;;;;;;;;;;;;;;5074855;28;19920;-78
2022/12/26 19:27:25;;;;;;;;;;;;;;;;;;5072201;28;19923;-79
2022/12/26 19:30:11;;;;;;;;;;;;;;;;;;5074094;28;20627;-78
2022/12/26 19:32:58;;;;;;;;;;;;;;;;;;5077798;28;19955;-77
2022/12/26 19:35:44;;;;;;;;;;;;;;;;;;5075389;28;19924;-78
2022/12/26 19:38:30;;;;;;;;;;;;;;;;;;5074889;28;19913;-80
2022/12/26 19:41:17;;;;;;;;;;;;;;;;;;5072457;28;19924;-79
2022/12/26 19:44:03;;;;;;;;;;;;;;;;;;5075902;28;19931;-79
2022/12/26 19:46:50;;;;;;;;;;;;;;;;;;5068650;28;19923;-78
2022/12/26 19:49:36;;;;;;;;;;;;;;;;;;5077410;28;19992;-77
2022/12/26 19:52:23;;;;;;;;;;;;;;;;;;5076815;28;19918;-78
2022/12/26 19:55:09;;;;;;;;;;;;;;;;;;5076910;28;20656;-76
2022/12/26 19:57:56;;;;;;;;;;;;;;;;;;5075177;28;19912;-75
2022/12/26 20:00:43;;;;;;;;;;;;;;;;;;5077948;28;19920;-77
2022/12/26 20:03:29;;;;;;;;;;;;;;;;;;5076614;28;19916;-76
2022/12/26 20:06:15;;;;;;;;;;;;;;;;;;5075108;28;20478;-77
2022/12/26 20:09:02;;;;;;;;;;;;;;;;;;5074538;28;20371;-77
2022/12/26 20:11:49;;;;;;;;;;;;;;;;;;5077814;28;19958;-76
2022/12/26 20:14:36;;;;;;;;;;;;;;;;;;5074220;28;19920;-76
2022/12/26 20:17:22;;;;;;;;;;;;;;;;;;5077365;28;19916;-79
2022/12/26 20:20:09;;;;;;;;;;;;;;;;;;5059213;28;20371;-77
2022/12/26 20:22:55;;;;;;;;;;;;;;;;;;5075032;28;19931;-77
2022/12/26 20:25:42;;;;;;;;;;;;;;;;;;5074912;28;19931;-75
2022/12/26 20:28:28;;;;;;;;;;;;;;;;;;5074147;28;19955;-76
2022/12/26 20:31:15;;;;;;;;;;;;;;;;;;5073869;28;19916;-74
2022/12/26 20:34:01;;;;;;;;;;;;;;;;;;5075262;28;20455;-75
2022/12/26 20:36:48;;;;;;;;;;;;;;;;;;5057561;28;19931;-74
2022/12/26 20:39:34;;;;;;;;;;;;;;;;;;5055562;28;19916;-79
2022/12/26 20:42:21;;;;;;;;;;;;;;;;;;5071932;28;19923;-76
2022/12/26 20:45:07;;;;;;;;;;;;;;;;;;5073271;28;20388;-76
2022/12/26 20:47:54;;;;;;;;;;;;;;;;;;5069930;28;20482;-79
2022/12/26 20:50:41;;;;;;;;;;;;;;;;;;5067860;28;19921;-79
2022/12/26 20:53:27;;;;;;;;;;;;;;;;;;5069069;28;19926;-79